Time;durP1;ratioP1;P1;durP2;ratioP2;P2;SDS_P1;SDS_P2;PMS_P1;PMS_P2;Temp;Humidity;BMP_temperature;BMP_pressure;BME280_temperature;BME280_humidity;BME280_pressure;Samples;Min_cycle;Max_cycle;Signal;HPM_P1;HPM_P2
2021/05/31 07:27:54;;;;;;;8.60;6.00;;;;;;;;;;6237414;22;20120;-50
2021/05/31 07:30:20;;;;;;;7.00;5.55;;;;;;;;;;6241449;22;20039;-50
2021/05/31 07:32:47;;;;;;;7.17;5.40;;;;;;;;;;6241824;22;20079;-51
2021/05/31 07:35:13;;;;;;;9.63;5.40;;;;;;;;;;6265679;22;20005;-50
2021/05/31 07:37:40;;;;;;;8.85;5.93;;;;;;;;;;6242791;22;20297;-48
2021/05/31 07:40:07;;;;;;;10.93;6.23;;;;;;;;;;6242603;22;20291;-48
2021/05/31 07:42:33;;;;;;;6.63;5.10;;;;;;;;;;6236692;22;20238;-48
2021/05/31 07:44:59;;;;;;;8.47;5.60;;;;;;;;;;6240696;22;20000;-48
2021/05/31 07:47:28;;;;;;;7.53;5.43;;;;;;;;;;6243148;22;20467;-50
2021/05/31 07:49:55;;;;;;;9.65;5.57;;;;;;;;;;6242794;22;20409;-48
2021/05/31 07:52:24;;;;;;;9.13;5.40;;;;;;;;;;6241518;22;20054;-49
2021/05/31 07:54:51;;;;;;;8.13;5.20;;;;;;;;;;6242853;22;20000;-50
2021/05/31 07:57:17;;;;;;;8.05;4.95;;;;;;;;;;6242448;22;20316;-50
2021/05/31 07:59:46;;;;;;;7.50;5.15;;;;;;;;;;6242842;22;20007;-48
2021/05/31 08:02:12;;;;;;;9.00;6.25;;;;;;;;;;6242206;22;20408;-46
2021/05/31 08:04:38;;;;;;;6.88;5.07;;;;;;;;;;6242980;22;20016;-47
2021/05/31 08:07:04;;;;;;;6.10;5.35;;;;;;;;;;6242354;22;20000;-48
2021/05/31 08:09:30;;;;;;;8.13;5.73;;;;;;;;;;6243007;22;20008;-47
2021/05/31 08:11:57;;;;;;;6.47;5.55;;;;;;;;;;6265637;22;20405;-47
2021/05/31 08:14:24;;;;;;;11.48;5.28;;;;;;;;;;6242779;22;20024;-48
2021/05/31 08:16:50;;;;;;;7.10;4.97;;;;;;;;;;6242415;22;20066;-49
2021/05/31 08:19:19;;;;;;;11.30;5.53;;;;;;;;;;6242143;22;20076;-48
2021/05/31 08:21:45;;;;;;;7.53;4.68;;;;;;;;;;6265753;22;20275;-51
2021/05/31 08:24:11;;;;;;;6.90;5.65;;;;;;;;;;6266609;22;20004;-50
2021/05/31 08:26:38;;;;;;;8.27;5.63;;;;;;;;;;6240887;22;20093;-48
2021/05/31 08:29:04;;;;;;;6.18;5.13;;;;;;;;;;6265765;22;20012;-52
2021/05/31 08:31:31;;;;;;;8.97;5.30;;;;;;;;;;6242964;22;20016;-51
2021/05/31 08:33:57;;;;;;;8.02;5.38;;;;;;;;;;6242161;22;19996;-48
2021/05/31 08:36:23;;;;;;;7.05;4.93;;;;;;;;;;6242166;22;20310;-47
2021/05/31 08:38:52;;;;;;;6.75;4.82;;;;;;;;;;6241086;22;20030;-48
2021/05/31 08:41:19;;;;;;;7.28;4.47;;;;;;;;;;6241251;22;20008;-60
2021/05/31 08:43:45;;;;;;;8.38;4.47;;;;;;;;;;6241662;22;20011;-47
2021/05/31 08:46:11;;;;;;;6.38;4.80;;;;;;;;;;6241488;22;20056;-48
2021/05/31 08:48:38;;;;;;;7.53;4.10;;;;;;;;;;6241273;22;20004;-57
2021/05/31 08:51:04;;;;;;;6.97;4.70;;;;;;;;;;6242311;22;20083;-52
2021/05/31 08:53:30;;;;;;;4.85;4.30;;;;;;;;;;6265879;22;20385;-49
2021/05/31 08:55:56;;;;;;;6.10;4.03;;;;;;;;;;6242143;22;20076;-51
2021/05/31 08:58:22;;;;;;;6.93;4.20;;;;;;;;;;6238757;22;20024;-48
2021/05/31 09:00:48;;;;;;;7.75;4.07;;;;;;;;;;6241252;22;20110;-50
2021/05/31 09:03:14;;;;;;;4.70;4.15;;;;;;;;;;6241819;22;20015;-55
2021/05/31 09:05:43;;;;;;;6.67;4.30;;;;;;;;;;6240727;22;20432;-51
2021/05/31 09:08:10;;;;;;;4.93;4.30;;;;;;;;;;6265535;22;20012;-49
2021/05/31 09:10:36;;;;;;;;;;;;;;;;;;6263372;22;20090;-53
2021/05/31 09:13:03;;;;;;;4.88;3.95;;;;;;;;;;6239921;22;19955;-54
2021/05/31 09:15:29;;;;;;;5.70;4.32;;;;;;;;;;6264366;22;20004;-50
2021/05/31 09:17:55;;;;;;;8.23;4.70;;;;;;;;;;6241515;22;19996;-50
2021/05/31 09:20:22;;;;;;;6.75;4.40;;;;;;;;;;6263933;22;20004;-47
2021/05/31 09:22:53;;;;;;;5.30;4.20;;;;;;;;;;6264525;22;20035;-48
2021/05/31 09:25:24;;;;;;;5.25;4.47;;;;;;;;;;6240642;22;20019;-49
2021/05/31 09:27:51;;;;;;;7.80;4.45;;;;;;;;;;6239773;22;20012;-50
2021/05/31 09:30:17;;;;;;;6.60;4.07;;;;;;;;;;6240035;22;20004;-50
2021/05/31 09:32:52;;;;;;;6.03;4.00;;;;;;;;;;6241950;22;20004;-51
2021/05/31 09:35:23;;;;;;;4.85;3.97;;;;;;;;;;6241057;22;20074;-50
2021/05/31 09:37:50;;;;;;;5.30;3.95;;;;;;;;;;6242299;22;20000;-52
2021/05/31 09:40:24;;;;;;;5.65;3.92;;;;;;;;;;6241868;22;20106;-51
2021/05/31 09:42:51;;;;;;;4.82;3.88;;;;;;;;;;6241018;22;20064;-52
2021/05/31 09:45:17;;;;;;;;;;;;;;;;;;6242676;22;20012;-55
2021/05/31 09:47:43;;;;;;;5.83;4.03;;;;;;;;;;6241536;22;19907;-55
2021/05/31 09:50:10;;;;;;;6.03;4.10;;;;;;;;;;6241438;22;20008;-50
2021/05/31 09:52:37;;;;;;;4.82;3.80;;;;;;;;;;6240836;22;20098;-49
2021/05/31 09:55:09;;;;;;;5.80;4.50;;;;;;;;;;6239867;22;19996;-52
2021/05/31 09:57:37;;;;;;;5.00;3.70;;;;;;;;;;6241030;22;20290;-55
2021/05/31 10:00:11;;;;;;;8.88;4.63;;;;;;;;;;6264896;22;20014;-55
2021/05/31 10:06:40;;;;;;;5.93;4.05;;;;;;;;;;6240357;22;20093;-51
2021/05/31 10:11:02;;;;;;;4.50;3.80;;;;;;;;;;6240346;22;20376;-50
2021/05/31 10:13:29;;;;;;;5.28;3.95;;;;;;;;;;6264446;22;19996;-52
2021/05/31 10:15:56;;;;;;;4.80;3.73;;;;;;;;;;6241400;22;20030;-53
2021/05/31 10:18:23;;;;;;;7.05;4.25;;;;;;;;;;6240879;22;20215;-54
2021/05/31 10:20:49;;;;;;;4.25;3.35;;;;;;;;;;6240154;22;20016;-51
2021/05/31 10:23:15;;;;;;;5.53;3.63;;;;;;;;;;6240943;22;20095;-50
2021/05/31 10:25:45;;;;;;;4.78;3.92;;;;;;;;;;6262910;22;20016;-50
2021/05/31 10:28:19;;;;;;;4.97;3.83;;;;;;;;;;6241034;22;20008;-50
2021/05/31 10:30:48;;;;;;;4.75;4.22;;;;;;;;;;6265283;22;20000;-55
2021/05/31 10:33:15;;;;;;;6.82;3.90;;;;;;;;;;6240815;22;19996;-49
2021/05/31 10:35:41;;;;;;;5.25;4.32;;;;;;;;;;6240439;22;20000;-52
2021/05/31 10:38:11;;;;;;;4.82;3.67;;;;;;;;;;6240814;22;20063;-51
2021/05/31 10:40:42;;;;;;;5.95;4.28;;;;;;;;;;6238263;22;20404;-49
2021/05/31 10:43:09;;;;;;;5.63;4.43;;;;;;;;;;6240863;22;20115;-50
2021/05/31 10:45:36;;;;;;;4.53;4.00;;;;;;;;;;6240247;22;20028;-48
2021/05/31 10:48:18;;;;;;;4.20;3.65;;;;;;;;;;6240693;22;20007;-49
2021/05/31 10:50:46;;;;;;;4.60;3.85;;;;;;;;;;6239169;22;20096;-49
2021/05/31 10:53:15;;;;;;;4.80;4.05;;;;;;;;;;6240198;22;20003;-48
2021/05/31 10:55:52;;;;;;;6.10;3.80;;;;;;;;;;6239851;22;20031;-51
2021/05/31 10:58:20;;;;;;;4.32;3.70;;;;;;;;;;6240595;22;20058;-50
2021/05/31 11:00:53;;;;;;;5.30;3.75;;;;;;;;;;6240811;22;20064;-49
2021/05/31 11:03:20;;;;;;;3.90;3.50;;;;;;;;;;6264133;22;20012;-52
2021/05/31 11:05:46;;;;;;;6.40;3.78;;;;;;;;;;6240708;22;20039;-49
2021/05/31 11:08:12;;;;;;;4.85;3.40;;;;;;;;;;6241193;22;20008;-49
2021/05/31 11:10:38;;;;;;;5.07;3.97;;;;;;;;;;6240915;22;20040;-49
2021/05/31 11:13:11;;;;;;;6.03;3.90;;;;;;;;;;6240966;22;20061;-50
2021/05/31 11:15:37;;;;;;;5.60;3.55;;;;;;;;;;6263819;22;20004;-49
2021/05/31 11:18:03;;;;;;;4.00;3.53;;;;;;;;;;6240837;22;20060;-51
2021/05/31 11:20:30;;;;;;;3.88;3.38;;;;;;;;;;6240806;22;20440;-50
2021/05/31 11:22:58;;;;;;;3.90;3.30;;;;;;;;;;6240411;22;20275;-50
2021/05/31 11:25:24;;;;;;;4.78;3.50;;;;;;;;;;6238682;22;20005;-51
2021/05/31 11:27:56;;;;;;;4.90;3.50;;;;;;;;;;6238747;22;20008;-50
2021/05/31 11:30:26;;;;;;;4.88;3.35;;;;;;;;;;6262911;22;20499;-51
2021/05/31 11:32:55;;;;;;;4.47;3.50;;;;;;;;;;6240244;22;20008;-51
2021/05/31 11:35:22;;;;;;;4.78;3.70;;;;;;;;;;6240266;22;20071;-53
2021/05/31 11:37:48;;;;;;;4.53;3.60;;;;;;;;;;6239081;22;20015;-51
2021/05/31 11:40:21;;;;;;;4.43;3.47;;;;;;;;;;6240238;22;20008;-51
2021/05/31 11:42:48;;;;;;;6.15;3.58;;;;;;;;;;6240356;22;20027;-52
2021/05/31 11:45:14;;;;;;;;;;;;;;;;;;6240110;22;20007;-57
2021/05/31 11:47:41;;;;;;;5.80;3.77;;;;;;;;;;6238616;23;19911;-57
2021/05/31 11:50:15;;;;;;;5.82;3.90;;;;;;;;;;6241003;22;20305;-55
2021/05/31 11:52:43;;;;;;;6.50;4.07;;;;;;;;;;6240578;22;20429;-55
2021/05/31 11:55:13;;;;;;;5.38;3.55;;;;;;;;;;6240791;22;20023;-57
2021/05/31 11:57:40;;;;;;;5.15;3.63;;;;;;;;;;6240861;22;20158;-59
2021/05/31 12:00:06;;;;;;;5.17;3.40;;;;;;;;;;6240226;22;20003;-56
2021/05/31 12:02:38;;;;;;;4.53;3.42;;;;;;;;;;6241139;22;20008;-52
2021/05/31 12:05:04;;;;;;;4.28;3.40;;;;;;;;;;6241340;22;20084;-54
2021/05/31 12:07:30;;;;;;;5.07;3.50;;;;;;;;;;6240413;22;20020;-56
2021/05/31 12:09:56;;;;;;;5.38;3.50;;;;;;;;;;6240258;22;20000;-57
2021/05/31 12:12:23;;;;;;;5.53;3.55;;;;;;;;;;6240984;22;20000;-58
2021/05/31 12:14:50;;;;;;;6.57;3.13;;;;;;;;;;6241141;22;20004;-58
2021/05/31 12:17:17;;;;;;;4.70;3.30;;;;;;;;;;6239850;22;20007;-57
2021/05/31 12:19:44;;;;;;;8.90;4.28;;;;;;;;;;6241889;22;20378;-55
2021/05/31 12:22:11;;;;;;;4.95;3.47;;;;;;;;;;6242972;22;20046;-51
2021/05/31 12:24:38;;;;;;;3.73;3.00;;;;;;;;;;6241498;22;20004;-56
2021/05/31 12:27:07;;;;;;;4.93;3.22;;;;;;;;;;6240138;22;20914;-56
2021/05/31 12:29:37;;;;;;;6.15;3.55;;;;;;;;;;6241918;22;20000;-57
2021/05/31 12:32:07;;;;;;;4.97;3.17;;;;;;;;;;6242189;22;20000;-60
2021/05/31 12:34:34;;;;;;;3.95;3.13;;;;;;;;;;6242350;22;20286;-57
2021/05/31 12:37:05;;;;;;;4.10;3.60;;;;;;;;;;6265979;22;20145;-58
2021/05/31 12:39:31;;;;;;;4.75;3.25;;;;;;;;;;6241772;22;20420;-58
2021/05/31 12:42:01;;;;;;;5.17;3.57;;;;;;;;;;6240643;23;20007;-60
2021/05/31 12:44:27;;;;;;;4.57;2.97;;;;;;;;;;6241783;22;20015;-60
2021/05/31 12:46:53;;;;;;;3.90;3.50;;;;;;;;;;6241760;22;20417;-58
2021/05/31 12:49:28;;;;;;;4.80;3.47;;;;;;;;;;6241795;22;20104;-57
2021/05/31 12:51:55;;;;;;;4.03;3.15;;;;;;;;;;6242545;22;20680;-58
2021/05/31 12:54:21;;;;;;;;;;;;;;;;;;6243328;22;20273;-58
2021/05/31 12:56:48;;;;;;;5.10;3.30;;;;;;;;;;6241715;22;19990;-59
2021/05/31 12:59:14;;;;;;;4.28;3.22;;;;;;;;;;6242739;22;20000;-57
2021/05/31 13:01:44;;;;;;;6.00;3.20;;;;;;;;;;6242317;22;20008;-62
2021/05/31 13:04:11;;;;;;;3.42;3.03;;;;;;;;;;6241871;22;20301;-59
2021/05/31 13:06:38;;;;;;;3.92;3.28;;;;;;;;;;6241759;22;20011;-61
2021/05/31 13:09:04;;;;;;;;;;;;;;;;;;6241448;22;20068;-58
2021/05/31 13:11:43;;;;;;;5.10;3.27;;;;;;;;;;6241556;22;19940;-57
2021/05/31 13:14:19;;;;;;;3.90;3.20;;;;;;;;;;6242692;22;20208;-58
2021/05/31 13:16:55;;;;;;;3.93;3.50;;;;;;;;;;6241846;22;20066;-61
2021/05/31 13:19:23;;;;;;;5.05;3.25;;;;;;;;;;6242295;22;19996;-57
2021/05/31 13:21:55;;;;;;;5.28;3.78;;;;;;;;;;6242318;22;20084;-59
2021/05/31 13:24:28;;;;;;;4.35;3.25;;;;;;;;;;6242257;22;20153;-58
2021/05/31 13:26:55;;;;;;;7.30;3.90;;;;;;;;;;6240275;22;20035;-60
2021/05/31 13:29:22;;;;;;;4.07;3.63;;;;;;;;;;6243039;22;20004;-55
2021/05/31 13:31:48;;;;;;;4.85;3.80;;;;;;;;;;6242352;22;20077;-56
2021/05/31 13:34:14;;;;;;;5.03;3.67;;;;;;;;;;6241955;22;20015;-55
2021/05/31 13:36:40;;;;;;;6.30;4.00;;;;;;;;;;6241989;22;20006;-58
2021/05/31 13:39:10;;;;;;;4.97;3.67;;;;;;;;;;6242499;22;20057;-53
2021/05/31 13:41:37;;;;;;;4.30;3.50;;;;;;;;;;6242049;22;20032;-52
2021/05/31 13:44:03;;;;;;;;;;;;;;;;;;6242418;22;20000;-52
2021/05/31 13:46:30;;;;;;;5.57;4.10;;;;;;;;;;6242312;22;19914;-54
2021/05/31 13:48:56;;;;;;;5.82;3.90;;;;;;;;;;6241973;22;20321;-49
2021/05/31 13:51:24;;;;;;;4.50;3.75;;;;;;;;;;6242399;22;20004;-55
2021/05/31 13:53:51;;;;;;;;;;;;;;;;;;6242652;22;20042;-57
2021/05/31 13:56:17;;;;;;;4.20;3.58;;;;;;;;;;6242160;22;19906;-55
2021/05/31 13:58:44;;;;;;;4.85;3.72;;;;;;;;;;6242278;22;19996;-57
2021/05/31 14:01:13;;;;;;;4.28;3.60;;;;;;;;;;6241688;22;20049;-58
2021/05/31 14:03:39;;;;;;;3.50;3.00;;;;;;;;;;6241781;22;20019;-57
2021/05/31 14:06:05;;;;;;;4.22;3.58;;;;;;;;;;6241190;22;20007;-65
2021/05/31 14:08:31;;;;;;;4.45;3.50;;;;;;;;;;6242118;22;20001;-59
2021/05/31 14:11:00;;;;;;;4.20;3.60;;;;;;;;;;6241715;22;20012;-56
2021/05/31 14:13:26;;;;;;;4.93;3.53;;;;;;;;;;6241678;22;20049;-58
2021/05/31 14:15:52;;;;;;;5.65;3.40;;;;;;;;;;6242976;22;20012;-54
2021/05/31 14:18:18;;;;;;;3.90;3.22;;;;;;;;;;6241658;22;20083;-57
2021/05/31 14:20:47;;;;;;;3.90;3.10;;;;;;;;;;6241316;22;20007;-58
2021/05/31 14:23:13;;;;;;;5.53;3.00;;;;;;;;;;6242230;22;20075;-60
2021/05/31 14:25:39;;;;;;;5.45;3.50;;;;;;;;;;6241571;22;20068;-60
2021/05/31 14:28:07;;;;;;;5.13;3.03;;;;;;;;;;6241906;22;20016;-59
2021/05/31 14:30:35;;;;;;;5.85;3.33;;;;;;;;;;6265578;22;20004;-55
2021/05/31 14:33:04;;;;;;;3.90;2.90;;;;;;;;;;6241352;22;19996;-59
2021/05/31 14:35:31;;;;;;;5.97;3.00;;;;;;;;;;6265892;22;20000;-56
2021/05/31 14:37:58;;;;;;;4.97;3.33;;;;;;;;;;6265362;22;20027;-60
2021/05/31 14:40:25;;;;;;;4.05;3.35;;;;;;;;;;6264561;22;20046;-64
2021/05/31 14:42:58;;;;;;;4.82;3.20;;;;;;;;;;6240945;22;20036;-62
2021/05/31 14:45:24;;;;;;;3.30;3.00;;;;;;;;;;6241846;22;20062;-60
2021/05/31 14:47:51;;;;;;;4.75;3.40;;;;;;;;;;6241423;22;20058;-59
2021/05/31 14:50:18;;;;;;;4.55;3.35;;;;;;;;;;6239327;22;20091;-60
2021/05/31 14:52:44;;;;;;;4.53;3.05;;;;;;;;;;6241474;22;20083;-65
2021/05/31 14:55:10;;;;;;;4.53;3.40;;;;;;;;;;6240907;22;20004;-61
2021/05/31 14:57:37;;;;;;;6.63;3.90;;;;;;;;;;6239192;22;20000;-59
2021/05/31 15:00:07;;;;;;;6.32;3.58;;;;;;;;;;6240406;22;19997;-59
2021/05/31 15:02:34;;;;;;;4.00;3.55;;;;;;;;;;6241350;22;20067;-64
2021/05/31 15:05:00;;;;;;;3.90;2.97;;;;;;;;;;6240655;22;20000;-63
2021/05/31 15:07:26;;;;;;;3.30;3.00;;;;;;;;;;6240751;22;20012;-61
2021/05/31 15:09:52;;;;;;;4.63;3.40;;;;;;;;;;6241475;22;20066;-63
2021/05/31 15:12:19;;;;;;;4.43;3.33;;;;;;;;;;6241907;22;20012;-62
2021/05/31 15:14:47;;;;;;;4.15;3.75;;;;;;;;;;6241283;22;20413;-60
2021/05/31 15:17:13;;;;;;;3.83;3.10;;;;;;;;;;6263789;22;20031;-67
2021/05/31 15:19:40;;;;;;;3.92;3.30;;;;;;;;;;6241125;22;20440;-63
2021/05/31 15:22:08;;;;;;;4.07;3.00;;;;;;;;;;6264234;22;20004;-68
2021/05/31 15:24:34;;;;;;;4.18;3.05;;;;;;;;;;6241173;22;20032;-62
2021/05/31 15:27:00;;;;;;;5.07;3.00;;;;;;;;;;6239110;22;20017;-61
2021/05/31 15:29:27;;;;;;;3.80;3.07;;;;;;;;;;6239682;22;20015;-63
2021/05/31 15:31:53;;;;;;;4.25;3.40;;;;;;;;;;6241689;22;20006;-66
2021/05/31 15:34:19;;;;;;;4.07;3.22;;;;;;;;;;6240441;22;20008;-60
2021/05/31 15:36:45;;;;;;;3.60;3.13;;;;;;;;;;6241877;22;20008;-59
2021/05/31 15:39:11;;;;;;;3.38;3.08;;;;;;;;;;6264861;22;20119;-61
2021/05/31 15:41:37;;;;;;;4.00;3.08;;;;;;;;;;6238848;23;20059;-64
2021/05/31 15:44:03;;;;;;;4.10;3.20;;;;;;;;;;6265153;22;20008;-64
2021/05/31 15:46:30;;;;;;;4.07;3.23;;;;;;;;;;6240789;22;20023;-63
2021/05/31 15:48:56;;;;;;;8.45;3.22;;;;;;;;;;6264532;22;20685;-62
2021/05/31 15:51:23;;;;;;;4.45;3.10;;;;;;;;;;6242150;22;20012;-62
2021/05/31 15:53:49;;;;;;;4.40;2.95;;;;;;;;;;6267444;22;20051;-62
2021/05/31 15:56:15;;;;;;;3.25;2.95;;;;;;;;;;6243339;22;20000;-64
2021/05/31 15:58:42;;;;;;;3.28;2.83;;;;;;;;;;6243113;22;20065;-59
2021/05/31 16:01:09;;;;;;;4.65;3.00;;;;;;;;;;6241011;23;20106;-57
2021/05/31 16:03:35;;;;;;;4.25;3.35;;;;;;;;;;6243228;22;20007;-59
2021/05/31 16:06:02;;;;;;;3.70;2.90;;;;;;;;;;6242835;22;20035;-59
2021/05/31 16:08:34;;;;;;;4.78;3.03;;;;;;;;;;6243198;22;20074;-59
2021/05/31 16:11:04;;;;;;;5.72;2.80;;;;;;;;;;6242413;22;20134;-58
2021/05/31 16:14:09;;;;;;;5.97;3.28;;;;;;;;;;5095097;27;20128;-47
2021/05/31 16:16:35;;;;;;;5.30;3.38;;;;;;;;;;5098233;28;20038;-45
2021/05/31 16:19:03;;;;;;;6.18;3.30;;;;;;;;;;5072859;28;20068;-43
2021/05/31 16:21:29;;;;;;;5.72;3.28;;;;;;;;;;5085560;28;20112;-44
2021/05/31 16:23:58;;;;;;;5.40;3.17;;;;;;;;;;5077036;28;20076;-43
2021/05/31 16:26:25;;;;;;;4.95;3.03;;;;;;;;;;5086176;28;20032;-45
2021/05/31 16:28:51;;;;;;;4.93;3.17;;;;;;;;;;5087307;28;20517;-44
2021/05/31 16:31:17;;;;;;;4.88;2.95;;;;;;;;;;5081013;28;20104;-44
2021/05/31 16:33:43;;;;;;;6.53;3.43;;;;;;;;;;5085891;28;20090;-44
2021/05/31 16:36:09;;;;;;;3.70;2.97;;;;;;;;;;5084331;28;20085;-45
2021/05/31 16:38:35;;;;;;;5.63;3.40;;;;;;;;;;5095395;28;20036;-44
2021/05/31 16:41:01;;;;;;;5.55;3.45;;;;;;;;;;5086782;28;20047;-44
2021/05/31 16:43:28;;;;;;;5.97;3.08;;;;;;;;;;5086518;28;20052;-45
2021/05/31 16:45:54;;;;;;;4.22;3.20;;;;;;;;;;5086261;28;20436;-44
2021/05/31 16:48:21;;;;;;;4.25;3.30;;;;;;;;;;5075776;28;20094;-44
2021/05/31 16:50:47;;;;;;;4.22;3.20;;;;;;;;;;5086523;28;20030;-45
2021/05/31 16:53:13;;;;;;;5.38;3.08;;;;;;;;;;5084119;28;20059;-44
2021/05/31 16:55:39;;;;;;;4.40;3.75;;;;;;;;;;5086668;28;20337;-44
2021/05/31 16:58:05;;;;;;;4.13;3.13;;;;;;;;;;5086317;28;20036;-44
2021/05/31 17:00:31;;;;;;;4.47;3.05;;;;;;;;;;5085913;28;20028;-44
2021/05/31 17:02:57;;;;;;;3.73;2.70;;;;;;;;;;5089586;28;20051;-45
2021/05/31 17:05:26;;;;;;;4.50;3.08;;;;;;;;;;5084898;28;20085;-46
2021/05/31 17:08:04;;;;;;;4.32;3.00;;;;;;;;;;5085842;28;20115;-43
2021/05/31 17:10:40;;;;;;;3.75;3.25;;;;;;;;;;5084043;28;20135;-45
2021/05/31 17:21:21;;;;;;;4.35;3.13;;;;;;;;;;5085002;28;20062;-44
2021/05/31 17:23:47;;;;;;;3.70;3.00;;;;;;;;;;5080582;28;20078;-44
2021/05/31 17:26:16;;;;;;;5.87;3.10;;;;;;;;;;5056256;28;20028;-44
2021/05/31 17:28:43;;;;;;;4.90;3.42;;;;;;;;;;5074935;28;20334;-45
2021/05/31 17:31:24;;;;;;;7.05;3.63;;;;;;;;;;5085052;28;20062;-44
2021/05/31 17:33:52;;;;;;;5.68;3.38;;;;;;;;;;5070813;28;20040;-44
2021/05/31 17:36:19;;;;;;;4.55;3.15;;;;;;;;;;5071030;28;20107;-45
2021/05/31 17:38:48;;;;;;;4.93;3.53;;;;;;;;;;5070454;28;20039;-44
2021/05/31 17:41:14;;;;;;;4.80;3.33;;;;;;;;;;5065222;28;20401;-45
2021/05/31 17:43:40;;;;;;;5.00;3.50;;;;;;;;;;5062244;28;20081;-46
2021/05/31 17:46:07;;;;;;;5.55;3.50;;;;;;;;;;5070599;28;20023;-44
2021/05/31 17:48:33;;;;;;;4.53;3.47;;;;;;;;;;5072361;28;20158;-45
2021/05/31 17:50:59;;;;;;;5.50;3.23;;;;;;;;;;5071183;28;20025;-45
2021/05/31 17:53:25;;;;;;;5.35;3.35;;;;;;;;;;5071765;28;20112;-45
2021/05/31 17:55:51;;;;;;;5.18;3.13;;;;;;;;;;5071770;28;20088;-45
2021/05/31 17:58:17;;;;;;;4.72;3.35;;;;;;;;;;5072946;28;20024;-45
2021/05/31 18:00:43;;;;;;;4.47;3.78;;;;;;;;;;5090007;28;20020;-48
2021/05/31 18:03:12;;;;;;;4.00;3.27;;;;;;;;;;5083558;28;20032;-45
2021/05/31 18:05:39;;;;;;;5.43;3.80;;;;;;;;;;5060740;28;20067;-44
2021/05/31 18:08:11;;;;;;;4.90;3.30;;;;;;;;;;5071584;28;20052;-46
2021/05/31 18:10:38;;;;;;;4.65;3.78;;;;;;;;;;5070816;28;20020;-45
2021/05/31 18:13:06;;;;;;;4.30;3.42;;;;;;;;;;5072144;28;20075;-48
2021/05/31 18:15:32;;;;;;;6.25;3.47;;;;;;;;;;5062157;28;20028;-46
2021/05/31 18:18:03;;;;;;;6.78;3.70;;;;;;;;;;5065204;28;20087;-48
2021/05/31 18:20:29;;;;;;;4.95;3.83;;;;;;;;;;5063837;28;20024;-46
2021/05/31 18:22:55;;;;;;;4.80;3.57;;;;;;;;;;5069535;28;20032;-44
2021/05/31 18:25:23;;;;;;;4.53;3.50;;;;;;;;;;5069903;28;20093;-44
2021/05/31 18:27:49;;;;;;;5.55;3.30;;;;;;;;;;5067864;28;20094;-46
2021/05/31 18:30:18;;;;;;;6.68;3.63;;;;;;;;;;5062329;28;20052;-44
2021/05/31 18:32:46;;;;;;;4.53;3.20;;;;;;;;;;5066236;28;20040;-44
2021/05/31 18:35:24;;;;;;;5.57;3.60;;;;;;;;;;5061432;28;20032;-44
2021/05/31 18:37:52;;;;;;;5.85;3.90;;;;;;;;;;5071037;28;20147;-45
2021/05/31 18:40:18;;;;;;;5.25;3.63;;;;;;;;;;5071330;28;20046;-44
2021/05/31 18:42:45;;;;;;;4.93;3.63;;;;;;;;;;5069851;28;20032;-43
2021/05/31 18:45:12;;;;;;;4.45;3.50;;;;;;;;;;5071316;28;20035;-45
2021/05/31 18:47:38;;;;;;;4.65;3.42;;;;;;;;;;5064074;28;20023;-46
2021/05/31 18:50:05;;;;;;;6.33;4.10;;;;;;;;;;5070413;28;20109;-45
2021/05/31 18:52:31;;;;;;;5.15;4.00;;;;;;;;;;5080844;28;20036;-44
2021/05/31 18:54:57;;;;;;;5.43;4.00;;;;;;;;;;5071472;28;20067;-47
2021/05/31 18:57:23;;;;;;;5.10;3.43;;;;;;;;;;5071254;28;20028;-45
2021/05/31 18:59:50;;;;;;;4.23;3.50;;;;;;;;;;5063726;28;20021;-45
2021/05/31 19:02:16;;;;;;;6.27;4.10;;;;;;;;;;5070478;28;20380;-45
2021/05/31 19:04:45;;;;;;;4.10;3.47;;;;;;;;;;5065248;28;20021;-45
2021/05/31 19:07:11;;;;;;;5.57;3.65;;;;;;;;;;5070365;28;20020;-46
2021/05/31 19:09:37;;;;;;;4.68;3.10;;;;;;;;;;5066599;28;20110;-46
2021/05/31 19:12:05;;;;;;;5.05;3.80;;;;;;;;;;5070878;28;20052;-47
2021/05/31 19:14:33;;;;;;;;;;;;;;;;;;5071281;28;20029;-45
2021/05/31 19:16:59;;;;;;;4.28;3.10;;;;;;;;;;5069583;28;20275;-45
2021/05/31 19:19:25;;;;;;;5.80;3.67;;;;;;;;;;5069624;28;20020;-46
2021/05/31 19:21:51;;;;;;;5.25;3.05;;;;;;;;;;5070175;28;20324;-45
2021/05/31 19:24:19;;;;;;;4.55;3.53;;;;;;;;;;5071113;28;20024;-44
2021/05/31 19:26:46;;;;;;;5.43;3.30;;;;;;;;;;5065227;28;20021;-45
2021/05/31 19:29:13;;;;;;;5.50;4.20;;;;;;;;;;5067471;28;20024;-44
2021/05/31 19:31:40;;;;;;;5.32;3.80;;;;;;;;;;5069357;28;20158;-45
2021/05/31 19:34:08;;;;;;;6.18;3.72;;;;;;;;;;5070719;28;20127;-44
2021/05/31 19:36:35;;;;;;;8.10;3.60;;;;;;;;;;5070863;28;20025;-45
2021/05/31 19:39:01;;;;;;;4.90;3.53;;;;;;;;;;5058786;28;20100;-46
2021/05/31 19:41:30;;;;;;;5.55;4.00;;;;;;;;;;5069629;28;20029;-47
2021/05/31 19:43:56;;;;;;;7.07;3.55;;;;;;;;;;5070719;28;20033;-43
2021/05/31 19:46:24;;;;;;;5.63;3.60;;;;;;;;;;5073401;28;20479;-47
2021/05/31 19:48:53;;;;;;;4.63;3.50;;;;;;;;;;5079681;28;20037;-47
2021/05/31 19:51:32;;;;;;;6.45;3.70;;;;;;;;;;5069386;28;20021;-44
2021/05/31 19:56:58;;;;;;;9.02;3.42;;;;;;;;;;5062106;28;20029;-48
2021/05/31 19:59:46;;;;;;;9.38;3.85;;;;;;;;;;5064718;28;20049;-44
2021/05/31 20:02:16;;;;;;;5.97;3.00;;;;;;;;;;5056366;28;20152;-44
2021/05/31 20:04:45;;;;;;;4.30;2.88;;;;;;;;;;5060367;28;20074;-45
2021/05/31 20:10:16;;;;;;;7.10;3.15;;;;;;;;;;5070360;28;20051;-46
2021/05/31 20:12:51;;;;;;;5.95;2.25;;;;;;;;;;5063349;28;20505;-44
2021/05/31 20:15:20;;;;;;;9.65;2.53;;;;;;;;;;5068741;28;20024;-45
2021/05/31 20:17:47;;;;;;;6.07;2.22;;;;;;;;;;5069990;28;20025;-45
2021/05/31 20:20:15;;;;;;;2.83;1.58;;;;;;;;;;5058976;28;20025;-44
2021/05/31 20:22:45;;;;;;;5.63;2.00;;;;;;;;;;5055958;28;20021;-46
2021/05/31 20:25:15;;;;;;;8.18;2.20;;;;;;;;;;5056860;28;20096;-46
